»·PEaware :: LNOHB L88-L52

LNOHB :: L88-L52

FLIGHT INFORMATION

Flight Status: Arrived
Operator: Unknown
More flights by this operator :: More flights under this callsign
Pilot: Øyvind H. B. (16416)
Aircraft: CESSNA 172 SKYHAWK
(C172)
More flights by this aircraft type
Origin: L88 New Cuyama
United States
Destination: L52 Oceano Co
United States
More flights between these airports :: More routes between these airports
Route: L88 L52
File this flight plan on PilotEdge
Remarks: newbie
Altitude:
(Current/Filed)
6,500ft
Speed:
(Current/Filed)
115kts
Departed: 06-Nov-17 11:14 PM
Arrived: 06-Nov-17 11:46 PM
Distance/Time
Traveled:
2nm/0:32
Distance/Time
To Go:
Arrived

Flight Plot

Page will automatically refresh every two minutes.


Map Options




Map Legend


Flown Route
Filed Route
Departure Airport
Arrival Airport
Navaid (VOR, NDB)
Fix

Horizontal Profiles

Position Reports

Time Latitude Longitude Heading Altitude Ground
Speed
06-Nov-17 23:16 34.942840 -119.690296 205 2153ft 2kts
06-Nov-17 23:17 34.941588 -119.689570 116 2159ft 18kts
06-Nov-17 23:18 34.938447 -119.681967 116 2195ft 33kts
06-Nov-17 23:19 34.938285 -119.681500 295 2197ft 46kts
06-Nov-17 23:20 34.948017 -119.703432 300 2827ft 83kts
06-Nov-17 23:21 34.959121 -119.724746 301 3623ft 82kts
06-Nov-17 23:22 34.971399 -119.745458 306 4379ft 81kts
06-Nov-17 23:23 34.982495 -119.767448 293 5096ft 82kts
06-Nov-17 23:24 34.989530 -119.792086 291 5819ft 82kts
06-Nov-17 23:25 34.995780 -119.816855 286 6384ft 94kts
06-Nov-17 23:26 35.004592 -119.848379 291 6437ft 113kts
06-Nov-17 23:27 35.017254 -119.880554 298 6430ft 114kts
06-Nov-17 23:28 35.030234 -119.912473 297 6432ft 114kts
06-Nov-17 23:29 35.043851 -119.944589 296 6438ft 114kts
06-Nov-17 23:30 35.054482 -119.978095 281 6441ft 115kts
06-Nov-17 23:31 35.057508 -120.014189 276 6442ft 116kts
06-Nov-17 23:32 35.057410 -120.050682 273 6431ft 117kts
06-Nov-17 23:33 35.056458 -120.087978 273 6419ft 119kts
06-Nov-17 23:34 35.059840 -120.124718 277 6373ft 123kts
06-Nov-17 23:35 35.066217 -120.161774 275 6202ft 135kts
06-Nov-17 23:36 35.069699 -120.202178 273 5913ft 131kts
06-Nov-17 23:37 35.073590 -120.242262 274 5356ft 131kts
06-Nov-17 23:38 35.077531 -120.282309 276 4801ft 131kts
06-Nov-17 23:39 35.084050 -120.322651 277 4242ft 132kts
06-Nov-17 23:40 35.089412 -120.362440 277 3760ft 132kts
06-Nov-17 23:41 35.092176 -120.402452 263 3450ft 131kts
06-Nov-17 23:42 35.089568 -120.442490 262 3198ft 129kts
06-Nov-17 23:43 35.086427 -120.481827 262 2821ft 130kts
06-Nov-17 23:44 35.080002 -120.518555 254 2402ft 132kts
06-Nov-17 23:45 35.071187 -120.557603 255 2016ft 130kts
06-Nov-17 23:46 35.063596 -120.597370 258 1633ft 131kts
06-Nov-17 23:47 35.066258 -120.635665 333 1160ft 133kts
06-Nov-17 23:48 35.085004 -120.618159 97 804ft 102kts
06-Nov-17 23:49 35.089603 -120.596842 339 448ft 94kts
06-Nov-17 23:50 35.099423 -120.618318 304 38ft 57kts
06-Nov-17 23:51 35.102793 -120.623169 298 17ft 12kts
06-Nov-17 23:52 35.102759 -120.623350 206 17ft 0kts
06-Nov-17 23:53 35.102759 -120.623350 206 17ft 0kts
06-Nov-17 23:54 35.102759 -120.623350 206 17ft 0kts
06-Nov-17 23:55 35.102759 -120.623350 206 17ft 0kts
06-Nov-17 23:56 34.942863 -119.690290 204 2152ft 0kts
06-Nov-17 23:57 34.942863 -119.690290 204 2152ft 0kts
06-Nov-17 23:58 34.942863 -119.690290 204 2152ft 0kts
06-Nov-17 23:59 34.942863 -119.690290 204 2152ft 0kts
07-Nov-17 00:00 34.942863 -119.690290 204 2152ft 0kts
07-Nov-17 00:01 34.942239 -119.691009 128 2152ft 18kts
07-Nov-17 00:02 34.938911 -119.683028 117 2189ft 33kts
07-Nov-17 00:03 34.937637 -119.679932 293 2204ft 3kts
07-Nov-17 00:04 34.945760 -119.699301 292 3066ft 93kts
07-Nov-17 00:05 34.953947 -119.726162 281 4416ft 99kts

Navigation Log

Ident Type
Flight plan parsing failed, navigation log unavailable